Malrin 5k - November 2

Marlin 5k Run/Walk

 

RACE RESULTS

3.1 miles
PlaceNameAgeSexAge GroupEventTimePace
1Katja Blunden40FOverall FemaleR00:18:3205:58:00
2Jose Reyna49MOverall MaleR00:19:1806:13:00
3Jack Jones12M1M10-14R00:20:0006:27:00
4Colin Colfer15M1M15-19R00:20:1906:33:00
5Brian Dwyer42MMale MastersR00:20:4806:42:00
6Eli Scharf10M2M10-14R00:21:0306:47:00
7Lexi Roberts14F1F10-14R00:21:2906:55:00
8Virginia Marrow33F1F30-34R00:21:5307:03:00
9Max Keebaugh17M2M15-19R00:21:5607:04:00
10Sarah Saris48FFemale MastersR00:21:5907:05:00
11Jay McKenzie57MMale GMR00:22:0207:06:00
12Tim Dreyer55M1M55-59R00:22:0507:07:00
13Nathan McCaskey32M1M30-34R00:22:1307:10:00
14Kevin Smith42M1M40-44R00:22:1407:10:00
15Rand Hammel62M1M60-64R00:22:2307:13:00
16Brian Halmachi60M2M60-64R00:22:3507:17:00
17Nick Roberson27M1M25-29R00:22:4007:18:00
18Claire Jones43F1F40-44R00:23:1107:28:00
19Tim Boomer Sullivan60M3M60-64R00:23:1207:29:00
20Ed Colfer46M1M45-49R00:23:2007:31:00
21Franz Itpik28M2M25-29R00:23:4507:39:00
22Karl Denninger56M2M55-59R00:23:4607:40:00
23Mike Superman Million62MR00:23:5207:41:00
24Barry Kirkwood56M3M55-59R00:23:5607:43:00
25Ella Harris12F2F10-14R00:24:1207:48:00
26Caleb Hurtado12M3M10-14R00:24:1307:48:00
27Ryan Linder12MR00:24:1307:48:00
28Maryn Roberts12F3F10-14R00:24:1507:49:00
29Jennifer Fox36F1F35-39R00:24:3507:55:00
30Christopher Schmiett30M2M30-34R00:24:3907:57:00
31Raul Meza63MR00:24:4808:00:00
32Stacy Nietzel45F1F45-49R00:24:5108:00:00
33Carol Testa47F2F45-49R00:24:5908:03:00
34Landry Fell15F1F15-19R00:25:0508:05:00
35Suzette McKenzie51FFemale GMR00:25:0908:06:00
36Chris Neitzel45M2M45-49R00:25:3708:15:00
37Pat Morgan58MR00:25:5008:20:00
38Jackson Black10MR00:25:5608:21:00
39Corie Black44F2F40-44R00:25:5708:22:00
40Wayne Brouillette69M1M65-69R00:25:5808:22:00
41Mark Flynn71M1M70R00:26:0208:23:00
42Elizabeth Scalia54F1F50-54R00:26:0708:25:00
43Liz Duran39F2F35-39R00:26:0908:26:00
44Toni Watters34F2F30-34R00:26:1208:27:00
45Lance Jorgensen73M2M70R00:26:1608:28:00
46Joni Alexander43F3F40-44R00:26:1708:28:00
47Avery Sen12FR00:26:2508:31:00
48Tapan Sen42M2M40-44R00:26:2608:31:00
49Donna Pink51F2F50-54R00:26:4108:36:00
50BANDIT0BB00:26:4308:37:00
51David Butler66M2M65-69R00:26:4408:37:00
52Barbara Tatge60F1F60-64R00:26:4408:37:00
53Alina Massey17F2F15-19R00:26:4608:38:00
54Greg Duran39M1M35-39R00:26:4708:38:00
55Ella Adams15F3F15-19R00:26:5008:39:00
56Paul Destafney63MR00:26:5508:40:00
57Deshon Adams10MR00:27:0508:44:00
58Michelle Boswell49F3F45-49R00:27:0608:44:00
59Sam Boswell47M3M45-49R00:27:0708:44:00
60Jocie Meza62F2F60-64R00:27:2608:50:00
61Robert Morrow64MR00:27:3608:54:00
62Cadence Garza8F1F0-9R00:27:4308:56:00
63Chelsea Florig36F3F35-39R00:27:4408:56:00
64Beth Schwarting56F1F55-59R00:28:0309:02:00
65Richard Harris64MR00:28:0609:03:00
66Saylor Tolbert10FR00:28:0709:04:00
67Ashley Fleming32F3F30-34R00:28:0709:04:00
68Mike Fell50M1M50-54R00:28:0909:04:00
69Kendra Buchner11FR00:28:1009:05:00
70Maribeth Wollard54F3F50-54R00:28:1309:06:00
71David Thompson52M2M50-54R00:28:1309:06:00
72Jeanette Destafney64F3F60-64R00:28:1509:06:00
73Rick Sneller51M3M50-54R00:28:2909:11:00
74Chaya Schart16FR00:28:4609:16:00
75Victoria Zerbe65F1F65-69R00:29:0709:23:00
76John Sanderson49MR00:29:0909:24:00
77Deidre Gregoire50FR00:29:1509:26:00
78Bill Christie72M3M70R00:29:2609:29:00
79Steve Cookman52MR00:29:3609:32:00
80David Kozikowski58MR00:29:5709:39:00
81Dave Brooks49MR00:30:0209:41:00
82Victoria Blakes36FR00:30:0909:43:00
83Stormi Campbell27F1F25-29R00:30:2309:48:00
84Chris Harris49MR00:30:4409:54:00
85Allie Ostman30FR00:30:4509:55:00
86Stefanie Johnson53FR00:31:0110:00:00
87Debbie Brooks51FR00:31:0510:01:00
88Dennis Samac60MR00:31:2310:07:00
89Craig Alexander45MR00:31:2810:09:00
90Becky Day51FR00:31:4410:14:00
91William Nation58MR00:31:5110:16:00
92Eimilio Garza48MR00:31:5210:16:00
93LInda Reynolds63FR00:32:0610:21:00
94Janet Briggs68F2F65-69R00:32:0910:22:00
95Todd Turley52MR00:32:4710:34:00
96Donna King52FR00:32:4710:34:00
97Ashley Allen34FR00:32:4810:34:00
98Taryn Jones35FR00:33:0410:40:00
99Michael Jones34M3M30-34R00:33:0410:40:00
100Jackie Syverson44FR00:33:0610:40:00
101Billie Adams47MR00:33:1110:42:00
102Ashton Natonio12M00:33:2610:47:00
103Nancy Mann73F1F70R00:33:5710:57:00
104Holli Dennis53F00:34:1311:02:00
105Brandy Mobley29F2F25-29R00:34:2411:05:00
106Rachel Van Skyhawk36F00:34:2911:07:00
107Michael Cinelli67M3M65-69R00:34:3311:08:00
108Rita Stowers50FR00:34:3511:09:00
109Neala Wilkins61FR00:34:3811:10:00
110Angie Fox54FR00:34:4611:12:00
111Jimmy Briggs69MR00:35:1311:21:00
112Teresa Polk46FR00:35:3511:28:00
113Cathy Alley63FOverall FemaleW00:36:1711:42:00
114Jennifer Natonio44F2FW00:36:1711:42:00
115Skyler Gibson30FR00:36:5411:54:00
116Joan Forman78F2F70R00:37:2412:03:00
117Debbie Henderson64FR00:37:5612:14:00
118Kaelyn Rich13FR00:37:5912:15:00
119Jamarya King11FR00:37:5912:15:00
120Vivane Prybille59F2F55-59R00:38:3112:25:00
121Christopher Scalia57MR00:38:5012:31:00
122Ivy VaTema50FR00:39:1212:38:00
123Barbara Bowen75F3F70R00:39:3412:45:00
124Gabby Ianni13FR00:39:3712:46:00
125Joanne Pearce49F3FW00:39:3812:47:00
126Timothy Lamb77MR00:39:4912:50:00
127Amanda Hamilton51F4FW00:40:4613:09:00
128Kristne Ramires23F1F20-24R00:41:1213:17:00
129Sarah Jenson36FR00:41:3913:26:00
130Steve Reynolds0MOverall MaleW00:42:1813:38:00
131Karin Grant62F5FW00:42:3813:45:00
132Ann Hood55FW00:42:4113:46:00
133Ken Wright79MR00:43:0113:52:00
134Tammy Turley50FR00:43:0313:53:00
135Krys Rush37FR00:44:0014:11:00
136Lily Rush6F2F0-9R00:44:0014:11:00
137Christie Brouillette68FW00:44:4014:24:00
138Turin Natonio45M2MW00:45:3414:41:00
139Tabitha DeJesus28F3F25-29R00:48:2815:38:00
140Angelisa Sierr11FR00:48:3015:38:00
141Jessica Daughtry31FW00:48:3015:38:00
142Leo Weeks82MR00:51:1516:31:00
143Candice Babjak35FW00:52:5117:02:00
144BANDIT0BB00:52:5217:03:00
145Donna Deviney59FW00:52:5317:03:00
146Robert Kelton57MR00:52:5317:03:00
147Kathy Ard49FW00:53:0417:07:00
148Tonya Evanchyk35FW00:53:0417:07:00
149Elizabeth Thiel27FW00:53:0817:08:00
150Killian Thiel4M3MW00:53:0817:08:00
151Linda Hays75FW00:53:4017:18:00
152Sherry Davies58FW00:53:4117:19:00
153Mick Davies64M4MW00:53:4617:20:00
154Elizabeth Hogenkamp30FW00:56:2018:10:00
155Nicolas Hogenkamp33MW00:56:2018:10:00
156Danielle Kalenze28FW00:56:2218:10:00
157Vivane Natonio14FW00:56:2418:11:00
158Tehra McClellan38FW00:56:2418:11:00
159Misti Douglas41FR00:56:4818:19:00
160Bryan Burns46MR00:56:5318:20:00
161John Luberto49M5MW00:56:5418:21:00
162Karen Angelosante64FW00:57:5518:40:00
163Betsy Tucker77FW00:57:5518:40:00

 

Contact InformationBillie Adams[email protected]850-830-8862

 

http://nwftc.com/racing/race-result/?id=608